Terminal Aerodrome Forecast
Issued by NWS Charleston, WV

Current Version | Previous Version | Graphics & Text | Print | Product List | Glossary On
Versions: 1 2 3 4 5 6 7 8 9 10 11 12 13 14 15 16 17 18 19 20 21 22 23 24 25 26 27 28
000
FTUS41 KRLX 250715 AAA
TAFCRW
TAF AMD
KCRW 250715Z 2507/2606 00000KT P6SM OVC025
      TEMPO 2507/2508 1SM BR OVC003
     FM250800 00000KT 1SM BR OVC006
     FM251400 VRB03KT P6SM -SHRA OVC007
     FM251900 31004KT P6SM -SHRA OVC015
     FM260000 31004KT P6SM BKN020
     FM260400 34003KT P6SM BKN040=

USA.gov is the U.S. government's official web portal to all federal, state and local government web resources and services.